sensor_id;sensor_type;location;lat;lon;timestamp;temperature;humidity
42227;DHT22;27892;52.378;13.122;2023-10-31T00:00:10;16.30;70.80
42227;DHT22;27892;52.378;13.122;2023-10-31T00:02:38;16.30;70.70
42227;DHT22;27892;52.378;13.122;2023-10-31T00:05:04;16.30;70.80
42227;DHT22;27892;52.378;13.122;2023-10-31T00:07:30;16.40;70.80
42227;DHT22;27892;52.378;13.122;2023-10-31T00:09:56;16.40;71.00
42227;DHT22;27892;52.378;13.122;2023-10-31T00:12:22;16.40;70.70
42227;DHT22;27892;52.378;13.122;2023-10-31T00:14:48;16.40;70.50
42227;DHT22;27892;52.378;13.122;2023-10-31T00:17:13;16.30;70.20
42227;DHT22;27892;52.378;13.122;2023-10-31T00:19:39;16.30;70.60
42227;DHT22;27892;52.378;13.122;2023-10-31T00:22:04;16.30;71.10
42227;DHT22;27892;52.378;13.122;2023-10-31T00:24:30;16.30;71.10
42227;DHT22;27892;52.378;13.122;2023-10-31T00:26:58;16.30;71.10
42227;DHT22;27892;52.378;13.122;2023-10-31T00:29:27;16.20;71.20
42227;DHT22;27892;52.378;13.122;2023-10-31T00:31:52;16.20;72.40
42227;DHT22;27892;52.378;13.122;2023-10-31T00:34:18;16.20;72.10
42227;DHT22;27892;52.378;13.122;2023-10-31T00:36:44;16.30;72.20
42227;DHT22;27892;52.378;13.122;2023-10-31T00:39:10;16.30;72.30
42227;DHT22;27892;52.378;13.122;2023-10-31T00:41:35;16.30;72.30
42227;DHT22;27892;52.378;13.122;2023-10-31T00:44:01;16.30;72.30
42227;DHT22;27892;52.378;13.122;2023-10-31T00:46:26;16.30;72.30
42227;DHT22;27892;52.378;13.122;2023-10-31T00:48:52;16.20;72.40
42227;DHT22;27892;52.378;13.122;2023-10-31T00:51:18;16.10;72.60
42227;DHT22;27892;52.378;13.122;2023-10-31T00:53:43;16.20;72.70
42227;DHT22;27892;52.378;13.122;2023-10-31T00:56:09;16.20;72.90
42227;DHT22;27892;52.378;13.122;2023-10-31T00:58:35;16.20;73.20
42227;DHT22;27892;52.378;13.122;2023-10-31T01:01:00;16.20;73.20
42227;DHT22;27892;52.378;13.122;2023-10-31T01:03:26;16.10;73.10
42227;DHT22;27892;52.378;13.122;2023-10-31T01:05:52;16.10;73.50
42227;DHT22;27892;52.378;13.122;2023-10-31T01:08:17;16.10;73.90
42227;DHT22;27892;52.378;13.122;2023-10-31T01:10:43;16.10;73.90
42227;DHT22;27892;52.378;13.122;2023-10-31T01:13:09;16.10;73.80
42227;DHT22;27892;52.378;13.122;2023-10-31T01:15:34;16.10;73.90
42227;DHT22;27892;52.378;13.122;2023-10-31T01:18:00;16.00;74.50
42227;DHT22;27892;52.378;13.122;2023-10-31T01:20:26;16.10;74.80
42227;DHT22;27892;52.378;13.122;2023-10-31T01:22:51;16.10;74.60
42227;DHT22;27892;52.378;13.122;2023-10-31T01:25:17;16.10;74.20
42227;DHT22;27892;52.378;13.122;2023-10-31T01:27:43;16.00;73.80
42227;DHT22;27892;52.378;13.122;2023-10-31T01:30:11;16.00;74.20
42227;DHT22;27892;52.378;13.122;2023-10-31T01:32:37;15.90;74.80
42227;DHT22;27892;52.378;13.122;2023-10-31T01:35:03;16.00;75.10
42227;DHT22;27892;52.378;13.122;2023-10-31T01:37:29;16.00;74.80
42227;DHT22;27892;52.378;13.122;2023-10-31T01:39:55;16.00;75.10
42227;DHT22;27892;52.378;13.122;2023-10-31T01:42:21;15.90;75.30
42227;DHT22;27892;52.378;13.122;2023-10-31T01:44:46;15.90;75.70
42227;DHT22;27892;52.378;13.122;2023-10-31T01:47:12;15.90;75.60
42227;DHT22;27892;52.378;13.122;2023-10-31T01:49:38;15.90;75.60
42227;DHT22;27892;52.378;13.122;2023-10-31T01:52:04;15.90;76.30
42227;DHT22;27892;52.378;13.122;2023-10-31T01:54:32;15.90;76.60
42227;DHT22;27892;52.378;13.122;2023-10-31T01:56:59;16.00;76.90
42227;DHT22;27892;52.378;13.122;2023-10-31T01:59:26;16.00;76.90
42227;DHT22;27892;52.378;13.122;2023-10-31T02:01:52;16.00;77.00
42227;DHT22;27892;52.378;13.122;2023-10-31T02:04:18;16.00;76.90
42227;DHT22;27892;52.378;13.122;2023-10-31T02:06:44;16.00;77.00
42227;DHT22;27892;52.378;13.122;2023-10-31T02:09:10;16.00;76.70
42227;DHT22;27892;52.378;13.122;2023-10-31T02:11:36;16.00;76.60
42227;DHT22;27892;52.378;13.122;2023-10-31T02:14:02;16.00;76.70
42227;DHT22;27892;52.378;13.122;2023-10-31T02:16:28;16.00;77.00
42227;DHT22;27892;52.378;13.122;2023-10-31T02:18:53;16.00;77.10
42227;DHT22;27892;52.378;13.122;2023-10-31T02:21:20;16.00;77.40
42227;DHT22;27892;52.378;13.122;2023-10-31T02:24:00;16.00;77.50
42227;DHT22;27892;52.378;13.122;2023-10-31T02:26:33;16.00;77.70
42227;DHT22;27892;52.378;13.122;2023-10-31T02:29:00;16.00;77.00
42227;DHT22;27892;52.378;13.122;2023-10-31T02:31:26;16.00;76.90
42227;DHT22;27892;52.378;13.122;2023-10-31T02:33:52;15.90;76.80
42227;DHT22;27892;52.378;13.122;2023-10-31T02:36:18;15.90;76.60
42227;DHT22;27892;52.378;13.122;2023-10-31T02:38:44;15.90;77.90
42227;DHT22;27892;52.378;13.122;2023-10-31T02:41:10;15.90;77.10
42227;DHT22;27892;52.378;13.122;2023-10-31T02:43:36;15.90;77.00
42227;DHT22;27892;52.378;13.122;2023-10-31T02:46:02;15.80;77.20
42227;DHT22;27892;52.378;13.122;2023-10-31T02:48:28;15.80;77.40
42227;DHT22;27892;52.378;13.122;2023-10-31T02:50:54;15.80;77.80
42227;DHT22;27892;52.378;13.122;2023-10-31T02:53:20;15.80;77.70
42227;DHT22;27892;52.378;13.122;2023-10-31T02:55:46;15.80;77.80
42227;DHT22;27892;52.378;13.122;2023-10-31T02:58:12;15.80;78.00
42227;DHT22;27892;52.378;13.122;2023-10-31T03:00:37;15.80;77.80
42227;DHT22;27892;52.378;13.122;2023-10-31T03:03:03;15.80;77.90
42227;DHT22;27892;52.378;13.122;2023-10-31T03:05:29;15.80;77.90
42227;DHT22;27892;52.378;13.122;2023-10-31T03:07:55;15.80;77.60
42227;DHT22;27892;52.378;13.122;2023-10-31T03:10:21;15.80;77.80
42227;DHT22;27892;52.378;13.122;2023-10-31T03:12:47;15.80;77.80
42227;DHT22;27892;52.378;13.122;2023-10-31T03:15:13;15.90;77.90
42227;DHT22;27892;52.378;13.122;2023-10-31T03:17:38;15.80;77.80
42227;DHT22;27892;52.378;13.122;2023-10-31T03:20:05;15.80;77.90
42227;DHT22;27892;52.378;13.122;2023-10-31T03:22:30;15.80;77.90
42227;DHT22;27892;52.378;13.122;2023-10-31T03:24:56;15.90;78.20
42227;DHT22;27892;52.378;13.122;2023-10-31T03:27:22;15.90;78.10
42227;DHT22;27892;52.378;13.122;2023-10-31T03:29:48;15.90;78.00
42227;DHT22;27892;52.378;13.122;2023-10-31T03:32:14;15.80;78.10
42227;DHT22;27892;52.378;13.122;2023-10-31T03:34:40;15.90;78.50
42227;DHT22;27892;52.378;13.122;2023-10-31T03:37:06;15.90;78.30
42227;DHT22;27892;52.378;13.122;2023-10-31T03:39:31;15.90;78.10
42227;DHT22;27892;52.378;13.122;2023-10-31T03:41:57;15.90;78.20
42227;DHT22;27892;52.378;13.122;2023-10-31T03:44:23;15.90;78.20
42227;DHT22;27892;52.378;13.122;2023-10-31T03:46:48;15.90;78.30
42227;DHT22;27892;52.378;13.122;2023-10-31T03:49:14;15.90;78.50
42227;DHT22;27892;52.378;13.122;2023-10-31T03:51:40;15.90;78.40
42227;DHT22;27892;52.378;13.122;2023-10-31T03:54:05;15.90;78.50
42227;DHT22;27892;52.378;13.122;2023-10-31T03:56:38;15.90;78.40
42227;DHT22;27892;52.378;13.122;2023-10-31T03:59:04;15.90;78.60
42227;DHT22;27892;52.378;13.122;2023-10-31T04:01:30;15.90;79.00
42227;DHT22;27892;52.378;13.122;2023-10-31T04:03:55;15.90;79.20
42227;DHT22;27892;52.378;13.122;2023-10-31T04:06:21;16.00;79.20
42227;DHT22;27892;52.378;13.122;2023-10-31T04:08:47;16.00;78.90
42227;DHT22;27892;52.378;13.122;2023-10-31T04:11:13;16.00;79.00
42227;DHT22;27892;52.378;13.122;2023-10-31T04:13:39;16.00;79.20
42227;DHT22;27892;52.378;13.122;2023-10-31T04:16:04;16.00;79.40
42227;DHT22;27892;52.378;13.122;2023-10-31T04:18:30;16.10;79.50
42227;DHT22;27892;52.378;13.122;2023-10-31T04:20:56;16.10;79.40
42227;DHT22;27892;52.378;13.122;2023-10-31T04:23:21;16.10;79.20
42227;DHT22;27892;52.378;13.122;2023-10-31T04:25:47;16.10;79.50
42227;DHT22;27892;52.378;13.122;2023-10-31T04:28:13;16.00;79.70
42227;DHT22;27892;52.378;13.122;2023-10-31T04:30:40;16.10;80.10
42227;DHT22;27892;52.378;13.122;2023-10-31T04:33:05;16.10;80.20
42227;DHT22;27892;52.378;13.122;2023-10-31T04:35:31;16.10;80.10
42227;DHT22;27892;52.378;13.122;2023-10-31T04:37:57;16.20;79.90
42227;DHT22;27892;52.378;13.122;2023-10-31T04:40:22;16.20;80.10
42227;DHT22;27892;52.378;13.122;2023-10-31T04:42:48;16.20;80.10
42227;DHT22;27892;52.378;13.122;2023-10-31T04:45:14;16.30;80.00
42227;DHT22;27892;52.378;13.122;2023-10-31T04:47:41;16.30;79.90
42227;DHT22;27892;52.378;13.122;2023-10-31T04:50:07;16.20;79.90
42227;DHT22;27892;52.378;13.122;2023-10-31T04:52:33;16.20;80.40
42227;DHT22;27892;52.378;13.122;2023-10-31T04:54:58;16.30;80.40
42227;DHT22;27892;52.378;13.122;2023-10-31T04:57:24;16.30;80.40
42227;DHT22;27892;52.378;13.122;2023-10-31T04:59:49;16.30;80.70
42227;DHT22;27892;52.378;13.122;2023-10-31T05:02:15;16.30;80.70
42227;DHT22;27892;52.378;13.122;2023-10-31T05:04:41;16.20;80.70
42227;DHT22;27892;52.378;13.122;2023-10-31T05:07:07;16.30;81.00
42227;DHT22;27892;52.378;13.122;2023-10-31T05:09:33;16.20;80.90
42227;DHT22;27892;52.378;13.122;2023-10-31T05:11:59;16.30;80.90
42227;DHT22;27892;52.378;13.122;2023-10-31T05:14:25;16.30;80.50
42227;DHT22;27892;52.378;13.122;2023-10-31T05:16:51;16.30;80.50
42227;DHT22;27892;52.378;13.122;2023-10-31T05:19:17;16.30;80.90
42227;DHT22;27892;52.378;13.122;2023-10-31T05:21:42;16.30;81.10
42227;DHT22;27892;52.378;13.122;2023-10-31T05:24:08;16.30;81.20
42227;DHT22;27892;52.378;13.122;2023-10-31T05:26:34;16.30;81.30
42227;DHT22;27892;52.378;13.122;2023-10-31T05:28:59;16.40;81.40
42227;DHT22;27892;52.378;13.122;2023-10-31T05:31:25;16.40;81.50
42227;DHT22;27892;52.378;13.122;2023-10-31T05:33:51;16.30;81.30
42227;DHT22;27892;52.378;13.122;2023-10-31T05:36:22;16.30;81.50
42227;DHT22;27892;52.378;13.122;2023-10-31T05:38:48;16.40;82.00
42227;DHT22;27892;52.378;13.122;2023-10-31T05:41:14;16.40;82.00
42227;DHT22;27892;52.378;13.122;2023-10-31T05:43:40;16.40;81.90
42227;DHT22;27892;52.378;13.122;2023-10-31T05:46:06;16.40;81.70
42227;DHT22;27892;52.378;13.122;2023-10-31T05:48:32;16.50;81.80
42227;DHT22;27892;52.378;13.122;2023-10-31T05:50:57;16.50;81.80
42227;DHT22;27892;52.378;13.122;2023-10-31T05:53:23;16.50;81.70
42227;DHT22;27892;52.378;13.122;2023-10-31T05:55:49;16.50;81.70
42227;DHT22;27892;52.378;13.122;2023-10-31T05:58:15;16.50;81.90
42227;DHT22;27892;52.378;13.122;2023-10-31T06:00:40;16.50;81.50
42227;DHT22;27892;52.378;13.122;2023-10-31T06:03:07;16.50;81.80
42227;DHT22;27892;52.378;13.122;2023-10-31T06:05:34;16.50;82.00
42227;DHT22;27892;52.378;13.122;2023-10-31T06:08:00;16.50;81.90
42227;DHT22;27892;52.378;13.122;2023-10-31T06:10:26;16.50;82.10
42227;DHT22;27892;52.378;13.122;2023-10-31T06:12:52;16.50;82.30
42227;DHT22;27892;52.378;13.122;2023-10-31T06:15:17;16.50;82.70
42227;DHT22;27892;52.378;13.122;2023-10-31T06:17:43;16.50;82.50
42227;DHT22;27892;52.378;13.122;2023-10-31T06:20:09;16.50;82.50
42227;DHT22;27892;52.378;13.122;2023-10-31T06:22:34;16.50;82.70
42227;DHT22;27892;52.378;13.122;2023-10-31T06:25:00;16.50;82.60
42227;DHT22;27892;52.378;13.122;2023-10-31T06:27:26;16.50;82.70
42227;DHT22;27892;52.378;13.122;2023-10-31T06:29:52;16.50;82.70
42227;DHT22;27892;52.378;13.122;2023-10-31T06:32:18;16.50;82.80
42227;DHT22;27892;52.378;13.122;2023-10-31T06:34:44;16.50;82.70
42227;DHT22;27892;52.378;13.122;2023-10-31T06:37:09;16.50;83.60
42227;DHT22;27892;52.378;13.122;2023-10-31T06:39:35;16.50;82.90
42227;DHT22;27892;52.378;13.122;2023-10-31T06:42:00;16.50;83.30
42227;DHT22;27892;52.378;13.122;2023-10-31T06:44:26;16.50;83.70
42227;DHT22;27892;52.378;13.122;2023-10-31T06:46:52;16.40;83.30
42227;DHT22;27892;52.378;13.122;2023-10-31T06:49:18;16.40;83.90
42227;DHT22;27892;52.378;13.122;2023-10-31T06:51:44;16.40;84.60
42227;DHT22;27892;52.378;13.122;2023-10-31T06:54:10;16.40;85.00
42227;DHT22;27892;52.378;13.122;2023-10-31T06:56:36;16.50;84.70
42227;DHT22;27892;52.378;13.122;2023-10-31T06:59:01;16.50;84.90
42227;DHT22;27892;52.378;13.122;2023-10-31T07:01:27;16.50;85.10
42227;DHT22;27892;52.378;13.122;2023-10-31T07:03:53;16.50;85.00
42227;DHT22;27892;52.378;13.122;2023-10-31T07:06:18;16.50;84.80
42227;DHT22;27892;52.378;13.122;2023-10-31T07:08:44;16.50;84.40
42227;DHT22;27892;52.378;13.122;2023-10-31T07:11:10;16.30;84.90
42227;DHT22;27892;52.378;13.122;2023-10-31T07:13:36;16.40;85.20
42227;DHT22;27892;52.378;13.122;2023-10-31T07:16:02;16.30;84.20
42227;DHT22;27892;52.378;13.122;2023-10-31T07:18:27;16.30;82.70
42227;DHT22;27892;52.378;13.122;2023-10-31T07:20:53;16.20;82.80
42227;DHT22;27892;52.378;13.122;2023-10-31T07:23:19;16.20;81.80
42227;DHT22;27892;52.378;13.122;2023-10-31T07:25:44;16.10;80.90
42227;DHT22;27892;52.378;13.122;2023-10-31T07:28:10;16.10;79.70
42227;DHT22;27892;52.378;13.122;2023-10-31T07:30:36;15.90;77.90
42227;DHT22;27892;52.378;13.122;2023-10-31T07:33:02;15.80;77.70
42227;DHT22;27892;52.378;13.122;2023-10-31T07:35:28;15.90;78.00
42227;DHT22;27892;52.378;13.122;2023-10-31T07:37:54;15.90;77.60
42227;DHT22;27892;52.378;13.122;2023-10-31T07:40:19;15.90;77.30
42227;DHT22;27892;52.378;13.122;2023-10-31T07:42:45;15.90;77.30
42227;DHT22;27892;52.378;13.122;2023-10-31T07:45:10;16.00;77.30
42227;DHT22;27892;52.378;13.122;2023-10-31T07:47:36;16.00;77.40
42227;DHT22;27892;52.378;13.122;2023-10-31T07:50:02;16.10;77.30
42227;DHT22;27892;52.378;13.122;2023-10-31T07:52:28;16.30;76.80
42227;DHT22;27892;52.378;13.122;2023-10-31T07:54:54;16.30;76.00
42227;DHT22;27892;52.378;13.122;2023-10-31T07:57:19;16.40;75.30
42227;DHT22;27892;52.378;13.122;2023-10-31T07:59:45;16.40;74.60
42227;DHT22;27892;52.378;13.122;2023-10-31T08:02:11;16.40;73.60
42227;DHT22;27892;52.378;13.122;2023-10-31T08:04:36;16.40;72.80
42227;DHT22;27892;52.378;13.122;2023-10-31T08:07:02;16.40;72.50
42227;DHT22;27892;52.378;13.122;2023-10-31T08:09:28;16.40;72.40
42227;DHT22;27892;52.378;13.122;2023-10-31T08:11:54;16.40;70.40
42227;DHT22;27892;52.378;13.122;2023-10-31T08:14:19;16.40;70.30
42227;DHT22;27892;52.378;13.122;2023-10-31T08:16:47;16.40;70.00
42227;DHT22;27892;52.378;13.122;2023-10-31T08:19:13;16.90;70.90
42227;DHT22;27892;52.378;13.122;2023-10-31T08:21:39;17.40;67.90
42227;DHT22;27892;52.378;13.122;2023-10-31T08:24:05;17.90;65.70
42227;DHT22;27892;52.378;13.122;2023-10-31T08:26:32;18.20;64.40
42227;DHT22;27892;52.378;13.122;2023-10-31T08:28:58;18.50;63.00
42227;DHT22;27892;52.378;13.122;2023-10-31T08:31:23;18.90;61.70
42227;DHT22;27892;52.378;13.122;2023-10-31T08:33:49;18.70;59.30
42227;DHT22;27892;52.378;13.122;2023-10-31T08:36:15;18.50;59.60
42227;DHT22;27892;52.378;13.122;2023-10-31T08:38:41;18.40;59.50
42227;DHT22;27892;52.378;13.122;2023-10-31T08:41:06;18.20;59.30
42227;DHT22;27892;52.378;13.122;2023-10-31T08:43:32;18.00;59.00
42227;DHT22;27892;52.378;13.122;2023-10-31T08:45:58;17.80;59.00
42227;DHT22;27892;52.378;13.122;2023-10-31T08:48:23;17.70;60.00
42227;DHT22;27892;52.378;13.122;2023-10-31T08:50:49;17.40;59.50
42227;DHT22;27892;52.378;13.122;2023-10-31T08:53:15;17.30;60.30
42227;DHT22;27892;52.378;13.122;2023-10-31T08:55:40;17.20;60.90
42227;DHT22;27892;52.378;13.122;2023-10-31T08:58:12;17.30;60.80
42227;DHT22;27892;52.378;13.122;2023-10-31T09:00:39;17.30;60.20
42227;DHT22;27892;52.378;13.122;2023-10-31T09:03:06;17.30;60.10
42227;DHT22;27892;52.378;13.122;2023-10-31T09:05:33;17.40;60.70
42227;DHT22;27892;52.378;13.122;2023-10-31T09:07:58;17.50;59.00
42227;DHT22;27892;52.378;13.122;2023-10-31T09:10:24;17.40;59.10
42227;DHT22;27892;52.378;13.122;2023-10-31T09:12:50;17.30;59.20
42227;DHT22;27892;52.378;13.122;2023-10-31T09:15:15;17.20;59.20
42227;DHT22;27892;52.378;13.122;2023-10-31T09:17:41;17.10;59.70
42227;DHT22;27892;52.378;13.122;2023-10-31T09:20:07;17.00;59.50
42227;DHT22;27892;52.378;13.122;2023-10-31T09:22:33;16.90;59.60
42227;DHT22;27892;52.378;13.122;2023-10-31T09:24:59;17.00;59.80
42227;DHT22;27892;52.378;13.122;2023-10-31T09:27:25;17.10;59.20
42227;DHT22;27892;52.378;13.122;2023-10-31T09:29:50;17.10;59.10
42227;DHT22;27892;52.378;13.122;2023-10-31T09:32:18;17.00;59.40
42227;DHT22;27892;52.378;13.122;2023-10-31T09:34:44;17.00;59.40
42227;DHT22;27892;52.378;13.122;2023-10-31T09:37:09;17.20;59.70
42227;DHT22;27892;52.378;13.122;2023-10-31T09:39:35;17.10;59.60
42227;DHT22;27892;52.378;13.122;2023-10-31T09:42:01;17.10;60.10
42227;DHT22;27892;52.378;13.122;2023-10-31T09:44:26;17.10;59.20
42227;DHT22;27892;52.378;13.122;2023-10-31T09:46:52;17.10;59.80
42227;DHT22;27892;52.378;13.122;2023-10-31T09:49:18;17.10;60.00
42227;DHT22;27892;52.378;13.122;2023-10-31T09:51:46;17.00;59.20
42227;DHT22;27892;52.378;13.122;2023-10-31T09:54:12;17.00;59.70
42227;DHT22;27892;52.378;13.122;2023-10-31T09:56:41;17.00;59.70
42227;DHT22;27892;52.378;13.122;2023-10-31T09:59:07;16.90;60.00
42227;DHT22;27892;52.378;13.122;2023-10-31T10:01:33;16.80;59.70
42227;DHT22;27892;52.378;13.122;2023-10-31T10:03:59;16.90;59.50
42227;DHT22;27892;52.378;13.122;2023-10-31T10:06:25;16.90;60.00
42227;DHT22;27892;52.378;13.122;2023-10-31T10:08:51;16.90;58.80
42227;DHT22;27892;52.378;13.122;2023-10-31T10:11:17;16.90;59.30
42227;DHT22;27892;52.378;13.122;2023-10-31T10:13:43;16.90;59.40
42227;DHT22;27892;52.378;13.122;2023-10-31T10:16:09;17.00;59.50
42227;DHT22;27892;52.378;13.122;2023-10-31T10:18:36;17.00;59.10
42227;DHT22;27892;52.378;13.122;2023-10-31T10:21:05;17.00;59.40
42227;DHT22;27892;52.378;13.122;2023-10-31T10:23:31;17.10;59.60
42227;DHT22;27892;52.378;13.122;2023-10-31T10:25:59;17.10;59.10
42227;DHT22;27892;52.378;13.122;2023-10-31T10:28:26;17.20;58.90
42227;DHT22;27892;52.378;13.122;2023-10-31T10:30:53;17.30;59.80
42227;DHT22;27892;52.378;13.122;2023-10-31T10:33:19;17.50;58.30
42227;DHT22;27892;52.378;13.122;2023-10-31T10:35:46;17.60;57.40
42227;DHT22;27892;52.378;13.122;2023-10-31T10:38:14;17.70;57.00
42227;DHT22;27892;52.378;13.122;2023-10-31T10:40:41;17.60;57.20
42227;DHT22;27892;52.378;13.122;2023-10-31T10:43:26;17.50;56.90
42227;DHT22;27892;52.378;13.122;2023-10-31T10:45:57;17.50;57.50
42227;DHT22;27892;52.378;13.122;2023-10-31T10:48:26;17.50;57.30
42227;DHT22;27892;52.378;13.122;2023-10-31T10:51:16;17.50;57.20
42227;DHT22;27892;52.378;13.122;2023-10-31T10:53:49;17.60;57.50
42227;DHT22;27892;52.378;13.122;2023-10-31T10:56:35;17.70;57.60
42227;DHT22;27892;52.378;13.122;2023-10-31T10:59:13;17.90;58.10
42227;DHT22;27892;52.378;13.122;2023-10-31T11:01:41;18.00;57.10
42227;DHT22;27892;52.378;13.122;2023-10-31T11:04:09;18.00;56.30
42227;DHT22;27892;52.378;13.122;2023-10-31T11:06:37;18.10;56.20
42227;DHT22;27892;52.378;13.122;2023-10-31T11:09:03;18.10;55.60
42227;DHT22;27892;52.378;13.122;2023-10-31T11:11:32;18.10;56.00
42227;DHT22;27892;52.378;13.122;2023-10-31T11:13:58;18.10;56.40
42227;DHT22;27892;52.378;13.122;2023-10-31T11:16:33;18.10;55.90
42227;DHT22;27892;52.378;13.122;2023-10-31T11:19:00;17.90;55.10
42227;DHT22;27892;52.378;13.122;2023-10-31T11:21:30;17.80;55.60
42227;DHT22;27892;52.378;13.122;2023-10-31T11:24:00;17.80;56.00
42227;DHT22;27892;52.378;13.122;2023-10-31T11:26:32;17.80;56.10
42227;DHT22;27892;52.378;13.122;2023-10-31T11:29:07;17.80;56.40
42227;DHT22;27892;52.378;13.122;2023-10-31T11:31:34;17.70;55.90
42227;DHT22;27892;52.378;13.122;2023-10-31T11:34:02;17.50;56.00
42227;DHT22;27892;52.378;13.122;2023-10-31T11:36:31;17.40;56.30
42227;DHT22;27892;52.378;13.122;2023-10-31T11:39:14;17.40;56.70
42227;DHT22;27892;52.378;13.122;2023-10-31T11:41:48;17.50;57.20
42227;DHT22;27892;52.378;13.122;2023-10-31T11:44:15;17.50;56.80
42227;DHT22;27892;52.378;13.122;2023-10-31T11:46:40;17.40;57.10
42227;DHT22;27892;52.378;13.122;2023-10-31T11:49:06;17.40;57.00
42227;DHT22;27892;52.378;13.122;2023-10-31T11:51:32;17.40;57.40
42227;DHT22;27892;52.378;13.122;2023-10-31T11:54:02;17.30;57.30
42227;DHT22;27892;52.378;13.122;2023-10-31T11:56:28;17.30;57.70
42227;DHT22;27892;52.378;13.122;2023-10-31T11:59:03;17.30;57.80
42227;DHT22;27892;52.378;13.122;2023-10-31T12:01:29;17.30;58.30
42227;DHT22;27892;52.378;13.122;2023-10-31T12:03:54;17.30;58.80
42227;DHT22;27892;52.378;13.122;2023-10-31T12:06:20;17.40;58.40
42227;DHT22;27892;52.378;13.122;2023-10-31T12:08:48;17.30;57.70
42227;DHT22;27892;52.378;13.122;2023-10-31T12:13:59;17.20;58.60
42227;DHT22;27892;52.378;13.122;2023-10-31T12:16:31;17.30;59.10
42227;DHT22;27892;52.378;13.122;2023-10-31T12:19:04;17.30;58.90
42227;DHT22;27892;52.378;13.122;2023-10-31T12:21:43;17.20;57.80
42227;DHT22;27892;52.378;13.122;2023-10-31T12:24:13;17.20;57.70
42227;DHT22;27892;52.378;13.122;2023-10-31T12:26:40;17.20;57.20
42227;DHT22;27892;52.378;13.122;2023-10-31T12:29:10;17.20;56.70
42227;DHT22;27892;52.378;13.122;2023-10-31T12:31:43;17.20;57.00
42227;DHT22;27892;52.378;13.122;2023-10-31T12:34:11;17.10;56.90
42227;DHT22;27892;52.378;13.122;2023-10-31T12:36:37;17.20;56.90
42227;DHT22;27892;52.378;13.122;2023-10-31T12:39:11;17.20;56.90
42227;DHT22;27892;52.378;13.122;2023-10-31T12:41:41;17.20;57.00
42227;DHT22;27892;52.378;13.122;2023-10-31T12:44:07;17.10;56.60
42227;DHT22;27892;52.378;13.122;2023-10-31T12:46:40;17.20;57.20
42227;DHT22;27892;52.378;13.122;2023-10-31T12:49:17;17.20;57.10
42227;DHT22;27892;52.378;13.122;2023-10-31T12:52:00;17.10;56.40
42227;DHT22;27892;52.378;13.122;2023-10-31T12:54:34;17.20;56.20
42227;DHT22;27892;52.378;13.122;2023-10-31T12:57:02;17.20;56.50
42227;DHT22;27892;52.378;13.122;2023-10-31T12:59:29;17.30;56.30
42227;DHT22;27892;52.378;13.122;2023-10-31T13:01:55;17.30;56.30
42227;DHT22;27892;52.378;13.122;2023-10-31T13:04:29;17.20;55.70
42227;DHT22;27892;52.378;13.122;2023-10-31T13:07:07;17.20;56.60
42227;DHT22;27892;52.378;13.122;2023-10-31T13:09:35;17.30;56.50
42227;DHT22;27892;52.378;13.122;2023-10-31T13:12:06;17.20;56.30
42227;DHT22;27892;52.378;13.122;2023-10-31T13:14:32;17.20;56.70
42227;DHT22;27892;52.378;13.122;2023-10-31T13:16:59;17.20;56.30
42227;DHT22;27892;52.378;13.122;2023-10-31T13:19:24;17.10;56.40
42227;DHT22;27892;52.378;13.122;2023-10-31T13:21:50;17.10;56.90
42227;DHT22;27892;52.378;13.122;2023-10-31T13:24:16;17.10;56.90
42227;DHT22;27892;52.378;13.122;2023-10-31T13:26:42;17.10;57.50
42227;DHT22;27892;52.378;13.122;2023-10-31T13:29:10;16.90;56.80
42227;DHT22;27892;52.378;13.122;2023-10-31T13:31:35;16.90;57.00
42227;DHT22;27892;52.378;13.122;2023-10-31T13:34:01;16.90;57.30
42227;DHT22;27892;52.378;13.122;2023-10-31T13:36:26;16.70;56.70
42227;DHT22;27892;52.378;13.122;2023-10-31T13:38:52;16.70;57.60
42227;DHT22;27892;52.378;13.122;2023-10-31T13:41:18;16.80;57.70
42227;DHT22;27892;52.378;13.122;2023-10-31T13:43:46;16.80;57.70
42227;DHT22;27892;52.378;13.122;2023-10-31T13:46:13;16.80;57.50
42227;DHT22;27892;52.378;13.122;2023-10-31T13:48:39;16.80;57.30
42227;DHT22;27892;52.378;13.122;2023-10-31T13:51:05;16.80;57.60
42227;DHT22;27892;52.378;13.122;2023-10-31T13:53:30;16.80;57.10
42227;DHT22;27892;52.378;13.122;2023-10-31T13:55:56;16.80;57.90
42227;DHT22;27892;52.378;13.122;2023-10-31T13:58:22;16.80;58.10
42227;DHT22;27892;52.378;13.122;2023-10-31T14:00:47;16.70;57.90
42227;DHT22;27892;52.378;13.122;2023-10-31T14:03:13;16.60;58.50
42227;DHT22;27892;52.378;13.122;2023-10-31T14:05:40;16.60;58.90
42227;DHT22;27892;52.378;13.122;2023-10-31T14:08:07;16.50;58.90
42227;DHT22;27892;52.378;13.122;2023-10-31T14:10:34;16.50;59.00
42227;DHT22;27892;52.378;13.122;2023-10-31T14:12:59;16.50;59.10
42227;DHT22;27892;52.378;13.122;2023-10-31T14:15:25;16.40;59.50
42227;DHT22;27892;52.378;13.122;2023-10-31T14:17:51;16.40;59.90
42227;DHT22;27892;52.378;13.122;2023-10-31T14:20:17;16.30;59.80
42227;DHT22;27892;52.378;13.122;2023-10-31T14:22:49;16.30;60.70
42227;DHT22;27892;52.378;13.122;2023-10-31T14:25:15;16.30;60.70
42227;DHT22;27892;52.378;13.122;2023-10-31T14:27:42;16.30;60.80
42227;DHT22;27892;52.378;13.122;2023-10-31T14:30:11;16.40;61.40
42227;DHT22;27892;52.378;13.122;2023-10-31T14:32:38;16.40;61.60
42227;DHT22;27892;52.378;13.122;2023-10-31T14:35:04;16.30;62.40
42227;DHT22;27892;52.378;13.122;2023-10-31T14:37:30;16.20;62.20
42227;DHT22;27892;52.378;13.122;2023-10-31T14:39:56;16.00;63.20
42227;DHT22;27892;52.378;13.122;2023-10-31T14:42:21;15.90;63.90
42227;DHT22;27892;52.378;13.122;2023-10-31T14:44:47;15.90;64.50
42227;DHT22;27892;52.378;13.122;2023-10-31T14:47:13;15.80;65.30
42227;DHT22;27892;52.378;13.122;2023-10-31T14:49:39;15.70;65.80
42227;DHT22;27892;52.378;13.122;2023-10-31T14:52:05;15.70;66.60
42227;DHT22;27892;52.378;13.122;2023-10-31T14:54:33;15.60;67.00
42227;DHT22;27892;52.378;13.122;2023-10-31T14:57:01;15.50;67.20
42227;DHT22;27892;52.378;13.122;2023-10-31T14:59:26;15.50;68.40
42227;DHT22;27892;52.378;13.122;2023-10-31T15:01:52;15.50;68.40
42227;DHT22;27892;52.378;13.122;2023-10-31T15:04:18;15.40;68.60
42227;DHT22;27892;52.378;13.122;2023-10-31T15:06:44;15.30;69.50
42227;DHT22;27892;52.378;13.122;2023-10-31T15:09:09;15.30;70.10
42227;DHT22;27892;52.378;13.122;2023-10-31T15:11:36;15.30;70.50
42227;DHT22;27892;52.378;13.122;2023-10-31T15:14:02;15.30;70.90